Time;durP1;ratioP1;P1;durP2;ratioP2;P2;SDS_P1;SDS_P2;PMS_P1;PMS_P2;Temp;Humidity;BMP_temperature;BMP_pressure;BME280_temperature;BME280_humidity;BME280_pressure;Samples;Min_cycle;Max_cycle;Signal;HPM_P1;HPM_P2
2021/08/01 00:00:52;;;;;;;10.07;5.60;;;;;;;;;;4958891;28;20043;-88
2021/08/01 00:03:20;;;;;;;15.63;5.57;;;;;;;;;;4953232;29;20125;-88
2021/08/01 00:05:47;;;;;;;13.20;5.70;;;;;;;;;;4947850;29;20126;-87
2021/08/01 00:08:14;;;;;;;9.85;5.30;;;;;;;;;;4946277;28;20058;-87
2021/08/01 00:10:42;;;;;;;9.73;5.78;;;;;;;;;;4937274;29;20138;-86
2021/08/01 00:13:09;;;;;;;11.00;5.65;;;;;;;;;;4951395;28;20546;-87
2021/08/01 00:15:37;;;;;;;9.77;5.75;;;;;;;;;;4932922;29;20396;-87
2021/08/01 00:18:04;;;;;;;14.85;6.28;;;;;;;;;;4934470;29;20737;-87
2021/08/01 00:20:32;;;;;;;9.80;5.93;;;;;;;;;;4941176;28;20047;-87
2021/08/01 00:22:59;;;;;;;8.05;5.65;;;;;;;;;;4932740;29;20125;-87
2021/08/01 00:25:27;;;;;;;14.15;5.72;;;;;;;;;;4942297;29;20154;-87
2021/08/01 00:27:54;;;;;;;11.32;6.30;;;;;;;;;;4943166;28;20184;-89
2021/08/01 00:30:21;;;;;;;9.60;6.03;;;;;;;;;;4937115;29;20720;-88
2021/08/01 00:32:48;;;;;;;14.95;6.45;;;;;;;;;;4935485;29;20047;-86
2021/08/01 00:35:16;;;;;;;18.20;6.00;;;;;;;;;;4940656;28;20070;-87
2021/08/01 00:37:43;;;;;;;18.85;6.65;;;;;;;;;;4949547;28;20118;-87
2021/08/01 00:40:10;;;;;;;11.95;6.82;;;;;;;;;;4942797;29;20098;-87
2021/08/01 00:42:38;;;;;;;9.93;6.50;;;;;;;;;;4933562;29;20075;-88
2021/08/01 00:45:07;;;;;;;11.80;6.22;;;;;;;;;;4948633;28;20110;-87
2021/08/01 00:47:35;;;;;;;11.25;6.82;;;;;;;;;;4935983;29;20094;-87
2021/08/01 00:50:07;;;;;;;13.88;6.43;;;;;;;;;;4935862;29;20126;-88
2021/08/01 00:52:37;;;;;;;12.00;6.13;;;;;;;;;;4946845;29;20078;-87
2021/08/01 00:55:09;;;;;;;11.48;6.82;;;;;;;;;;4952752;28;20043;-87
2021/08/01 00:57:36;;;;;;;13.57;7.15;;;;;;;;;;4960179;28;20535;-87
2021/08/01 01:00:05;;;;;;;12.15;7.15;;;;;;;;;;4942542;29;20055;-87
2021/08/01 01:02:39;;;;;;;16.33;7.10;;;;;;;;;;4935673;29;20106;-87
2021/08/01 01:05:17;;;;;;;14.80;6.60;;;;;;;;;;4932047;29;20047;-87
2021/08/01 01:08:11;;;;;;;14.10;6.85;;;;;;;;;;4932452;29;20043;-87
2021/08/01 01:10:44;;;;;;;12.18;6.78;;;;;;;;;;4932457;28;20802;-87
2021/08/01 01:13:15;;;;;;;14.48;6.43;;;;;;;;;;4935352;29;20086;-87
2021/08/01 01:15:47;;;;;;;13.48;6.50;;;;;;;;;;4935966;29;20095;-87
2021/08/01 01:18:18;;;;;;;15.70;6.25;;;;;;;;;;4943341;29;20055;-87
2021/08/01 01:21:07;;;;;;;15.70;6.50;;;;;;;;;;4941202;29;20066;-87
2021/08/01 01:23:34;;;;;;;11.65;6.50;;;;;;;;;;4938558;29;20051;-87
2021/08/01 01:26:04;;;;;;;14.13;6.57;;;;;;;;;;4961102;28;20070;-87
2021/08/01 01:28:38;;;;;;;14.75;6.53;;;;;;;;;;4946128;29;20047;-88
2021/08/01 01:31:31;;;;;;;10.27;6.60;;;;;;;;;;4925564;29;20106;-87
2021/08/01 01:34:18;;;;;;;12.15;6.55;;;;;;;;;;4943725;29;20075;-87
2021/08/01 01:36:46;;;;;;;15.50;6.10;;;;;;;;;;4935093;29;20051;-87
2021/08/01 01:39:16;;;;;;;10.40;6.18;;;;;;;;;;4951608;28;20584;-87
2021/08/01 01:41:45;;;;;;;15.02;6.80;;;;;;;;;;4939316;28;20547;-87
2021/08/01 01:44:14;;;;;;;15.10;6.25;;;;;;;;;;4950538;29;20135;-88
2021/08/01 01:46:41;;;;;;;9.88;6.25;;;;;;;;;;4935902;29;20075;-87
2021/08/01 01:49:11;;;;;;;12.32;6.80;;;;;;;;;;4944504;29;20075;-88
2021/08/01 01:51:38;;;;;;;10.70;6.38;;;;;;;;;;4937762;29;20150;-87
2021/08/01 01:54:18;;;;;;;13.88;6.38;;;;;;;;;;4949813;28;20492;-87
2021/08/01 01:56:45;;;;;;;15.60;7.13;;;;;;;;;;4952528;29;20102;-87
2021/08/01 01:59:13;;;;;;;17.20;7.47;;;;;;;;;;4943932;28;20051;-87
2021/08/01 02:01:40;;;;;;;11.13;6.57;;;;;;;;;;4952219;28;20078;-87
2021/08/01 02:04:07;;;;;;;12.57;6.65;;;;;;;;;;4921828;29;20655;-87
2021/08/01 02:06:38;;;;;;;19.52;7.80;;;;;;;;;;4947582;29;20130;-86
2021/08/01 02:09:15;;;;;;;24.98;7.90;;;;;;;;;;4935219;29;20059;-87
2021/08/01 02:11:45;;;;;;;12.55;6.97;;;;;;;;;;4932271;29;20055;-87
2021/08/01 02:14:15;;;;;;;12.27;7.75;;;;;;;;;;4934760;29;20094;-87
2021/08/01 02:16:45;;;;;;;20.88;8.13;;;;;;;;;;4947843;29;20063;-87
2021/08/01 02:19:13;;;;;;;16.27;6.95;;;;;;;;;;4951561;28;20527;-87
2021/08/01 02:21:40;;;;;;;16.38;7.10;;;;;;;;;;4930675;29;20057;-87
2021/08/01 02:24:08;;;;;;;14.13;7.60;;;;;;;;;;4968915;28;20077;-88
2021/08/01 02:26:37;;;;;;;15.55;7.57;;;;;;;;;;4949804;29;20047;-88
2021/08/01 02:29:05;;;;;;;18.55;7.38;;;;;;;;;;4966598;28;20213;-86
2021/08/01 02:31:34;;;;;;;15.93;7.70;;;;;;;;;;4959232;29;20090;-87
2021/08/01 02:34:01;;;;;;;11.65;7.18;;;;;;;;;;4941875;29;20563;-88
2021/08/01 02:36:29;;;;;;;19.52;7.95;;;;;;;;;;4962254;28;20134;-88
2021/08/01 02:38:58;;;;;;;14.98;8.10;;;;;;;;;;4962585;29;20444;-86
2021/08/01 02:41:36;;;;;;;13.85;7.68;;;;;;;;;;4947575;29;20058;-87
2021/08/01 02:44:10;;;;;;;12.48;7.10;;;;;;;;;;4945257;29;20105;-87
2021/08/01 02:46:38;;;;;;;18.08;7.60;;;;;;;;;;4957859;28;20078;-87
2021/08/01 02:49:27;;;;;;;19.08;8.50;;;;;;;;;;4941074;29;20554;-88
2021/08/01 02:51:56;;;;;;;19.73;8.48;;;;;;;;;;4937603;28;20577;-87
2021/08/01 02:54:31;;;;;;;17.98;8.40;;;;;;;;;;4970896;28;20150;-87
2021/08/01 02:57:00;;;;;;;17.10;9.15;;;;;;;;;;4943721;28;20059;-86
2021/08/01 02:59:30;;;;;;;16.90;8.57;;;;;;;;;;4952220;28;20059;-87
2021/08/01 03:01:58;;;;;;;17.00;9.40;;;;;;;;;;4960213;28;20131;-87
2021/08/01 03:04:25;;;;;;;24.08;10.63;;;;;;;;;;4952541;28;20378;-87
2021/08/01 03:06:53;;;;;;;20.45;9.80;;;;;;;;;;4948671;28;20645;-87
2021/08/01 03:09:20;;;;;;;20.02;8.70;;;;;;;;;;4955642;28;20074;-86
2021/08/01 03:11:47;;;;;;;18.05;9.43;;;;;;;;;;4940184;29;20145;-87
2021/08/01 03:14:15;;;;;;;17.88;8.77;;;;;;;;;;4952862;29;20060;-87
2021/08/01 03:16:45;;;;;;;22.20;9.32;;;;;;;;;;4952972;29;20051;-86
2021/08/01 03:19:12;;;;;;;24.33;9.88;;;;;;;;;;4942640;29;20111;-87
2021/08/01 03:21:43;;;;;;;25.95;10.32;;;;;;;;;;4955154;28;20571;-86
2021/08/01 03:24:12;;;;;;;18.83;9.63;;;;;;;;;;4959598;28;20102;-87
2021/08/01 03:26:42;;;;;;;20.23;9.52;;;;;;;;;;4942739;28;20121;-87
2021/08/01 03:29:09;;;;;;;19.40;9.20;;;;;;;;;;4954768;28;20135;-87
2021/08/01 03:31:36;;;;;;;16.50;9.07;;;;;;;;;;4950891;28;20051;-87
2021/08/01 03:34:03;;;;;;;21.63;9.32;;;;;;;;;;4954003;28;20576;-87
2021/08/01 03:36:31;;;;;;;18.80;9.25;;;;;;;;;;4941765;28;20130;-86
2021/08/01 03:38:58;;;;;;;17.42;8.43;;;;;;;;;;4938490;29;20052;-87
2021/08/01 03:41:28;;;;;;;17.13;8.48;;;;;;;;;;4955401;28;20074;-87
2021/08/01 03:43:55;;;;;;;18.02;8.55;;;;;;;;;;4953353;29;20117;-87
2021/08/01 03:46:22;;;;;;;16.52;8.45;;;;;;;;;;4954670;28;20211;-87
2021/08/01 03:48:49;;;;;;;16.85;8.35;;;;;;;;;;4932902;28;20053;-87
2021/08/01 03:51:17;;;;;;;13.30;8.25;;;;;;;;;;4939456;29;20134;-87
2021/08/01 03:53:44;;;;;;;14.77;7.82;;;;;;;;;;4937096;29;20071;-87
2021/08/01 03:56:11;;;;;;;17.45;8.10;;;;;;;;;;4953903;28;20772;-87
2021/08/01 03:58:39;;;;;;;14.60;7.78;;;;;;;;;;4944292;28;20134;-87
2021/08/01 04:01:06;;;;;;;15.23;7.72;;;;;;;;;;4945867;29;20091;-87
2021/08/01 04:03:33;;;;;;;16.88;8.65;;;;;;;;;;4952498;28;20150;-87
2021/08/01 04:06:08;;;;;;;18.33;8.82;;;;;;;;;;4952496;28;20043;-87
2021/08/01 04:08:35;;;;;;;15.70;7.80;;;;;;;;;;4937382;29;20078;-87
2021/08/01 04:11:05;;;;;;;19.63;7.68;;;;;;;;;;4953090;28;20098;-87
2021/08/01 04:13:34;;;;;;;15.98;7.78;;;;;;;;;;4938876;29;20059;-86
2021/08/01 04:16:01;;;;;;;23.73;8.18;;;;;;;;;;4946260;29;20047;-87
2021/08/01 04:18:29;;;;;;;16.88;8.15;;;;;;;;;;4946804;29;20054;-87
2021/08/01 04:20:56;;;;;;;17.42;8.38;;;;;;;;;;4947804;29;20070;-87
2021/08/01 04:23:23;;;;;;;15.95;7.45;;;;;;;;;;4936506;29;20133;-87
2021/08/01 04:25:55;;;;;;;16.77;7.38;;;;;;;;;;4945287;29;20109;-87
2021/08/01 04:28:22;;;;;;;16.80;7.88;;;;;;;;;;4959304;28;20599;-86
2021/08/01 04:30:49;;;;;;;16.90;7.20;;;;;;;;;;4955804;28;20548;-87
2021/08/01 04:33:16;;;;;;;14.73;7.68;;;;;;;;;;4936357;29;20040;-87
2021/08/01 04:35:46;;;;;;;15.75;7.30;;;;;;;;;;4945177;29;20110;-87
2021/08/01 04:38:14;;;;;;;19.42;7.32;;;;;;;;;;4945915;29;20047;-86
2021/08/01 04:40:43;;;;;;;15.43;7.45;;;;;;;;;;4936665;29;20555;-87
2021/08/01 04:43:11;;;;;;;16.35;7.40;;;;;;;;;;4950218;28;22026;-87
2021/08/01 04:45:48;;;;;;;13.82;6.72;;;;;;;;;;4941430;29;20122;-87
2021/08/01 04:48:16;;;;;;;16.40;7.55;;;;;;;;;;4947365;28;20053;-86
2021/08/01 04:50:45;;;;;;;14.15;6.80;;;;;;;;;;4959928;28;20059;-87
2021/08/01 04:53:13;;;;;;;14.38;6.55;;;;;;;;;;4936925;28;20059;-87
2021/08/01 04:55:40;;;;;;;12.68;5.88;;;;;;;;;;4933056;29;20082;-87
2021/08/01 04:58:08;;;;;;;8.27;5.47;;;;;;;;;;4953725;28;20075;-87
2021/08/01 05:00:36;;;;;;;10.95;5.38;;;;;;;;;;4938367;29;20101;-87
2021/08/01 05:03:04;;;;;;;14.18;5.38;;;;;;;;;;4936038;29;20058;-87
2021/08/01 05:05:35;;;;;;;13.57;6.20;;;;;;;;;;4948525;28;20129;-87
2021/08/01 05:08:03;;;;;;;15.95;5.45;;;;;;;;;;4955986;28;20050;-87
2021/08/01 05:10:30;;;;;;;12.25;5.35;;;;;;;;;;4951166;29;20671;-87
2021/08/01 05:12:58;;;;;;;7.53;5.72;;;;;;;;;;4951901;29;20391;-87
2021/08/01 05:15:26;;;;;;;8.73;5.50;;;;;;;;;;4935868;29;20145;-87
2021/08/01 05:18:04;;;;;;;11.63;5.57;;;;;;;;;;4936021;29;20047;-87
2021/08/01 05:20:40;;;;;;;10.02;5.95;;;;;;;;;;4939510;29;20440;-87
2021/08/01 05:23:07;;;;;;;10.40;5.13;;;;;;;;;;4935452;28;20106;-86
2021/08/01 05:25:34;;;;;;;12.05;5.50;;;;;;;;;;4938682;29;20106;-86
2021/08/01 05:28:01;;;;;;;8.63;5.07;;;;;;;;;;4947655;28;20229;-86
2021/08/01 05:30:29;;;;;;;9.10;5.30;;;;;;;;;;4957814;28;20098;-87
2021/08/01 05:32:56;;;;;;;7.03;5.18;;;;;;;;;;4931405;29;20111;-86
2021/08/01 05:35:23;;;;;;;12.35;6.15;;;;;;;;;;4945551;28;20090;-86
2021/08/01 05:37:51;;;;;;;10.77;5.38;;;;;;;;;;4943419;28;20758;-87
2021/08/01 05:40:19;;;;;;;11.60;5.57;;;;;;;;;;4939204;29;20091;-87
2021/08/01 05:42:47;;;;;;;8.52;5.10;;;;;;;;;;4928126;29;20055;-87
2021/08/01 05:45:14;;;;;;;14.25;5.70;;;;;;;;;;4929854;29;20531;-87
2021/08/01 05:47:41;;;;;;;8.50;5.90;;;;;;;;;;4949550;28;20639;-87
2021/08/01 05:50:09;;;;;;;6.32;4.80;;;;;;;;;;4951596;28;20078;-86
2021/08/01 05:52:36;;;;;;;7.65;5.22;;;;;;;;;;4933953;29;20062;-86
2021/08/01 05:55:05;;;;;;;10.30;5.53;;;;;;;;;;4941639;29;20051;-86
2021/08/01 05:57:32;;;;;;;11.98;6.10;;;;;;;;;;4930138;29;20051;-87
2021/08/01 05:59:59;;;;;;;9.77;5.95;;;;;;;;;;4948300;28;20081;-86
2021/08/01 06:02:26;;;;;;;14.25;5.80;;;;;;;;;;4951263;29;20736;-86
2021/08/01 06:04:54;;;;;;;8.77;5.35;;;;;;;;;;4952105;29;20499;-86
2021/08/01 06:07:21;;;;;;;9.75;5.75;;;;;;;;;;4939879;28;20078;-85
2021/08/01 06:09:48;;;;;;;14.27;6.05;;;;;;;;;;4959174;28;20094;-86
2021/08/01 06:12:18;;;;;;;10.82;5.28;;;;;;;;;;4943171;29;20093;-86
2021/08/01 06:14:49;;;;;;;9.50;5.88;;;;;;;;;;4938041;28;20698;-86
2021/08/01 06:17:16;;;;;;;7.47;5.40;;;;;;;;;;4935462;29;20735;-86
2021/08/01 06:19:43;;;;;;;16.65;5.90;;;;;;;;;;4951047;29;20090;-86
2021/08/01 06:22:15;;;;;;;9.57;5.85;;;;;;;;;;4950742;28;20070;-86
2021/08/01 06:24:42;;;;;;;12.20;6.80;;;;;;;;;;4936334;29;20047;-86
2021/08/01 06:27:09;;;;;;;10.52;6.57;;;;;;;;;;4948435;28;20071;-86
2021/08/01 06:29:36;;;;;;;12.00;7.53;;;;;;;;;;4933856;28;20768;-87
2021/08/01 06:32:03;;;;;;;12.25;6.38;;;;;;;;;;4934939;29;20048;-87
2021/08/01 06:34:31;;;;;;;10.10;6.13;;;;;;;;;;4934152;29;20066;-86
2021/08/01 06:36:58;;;;;;;13.10;5.70;;;;;;;;;;4933589;28;20419;-88
2021/08/01 06:39:25;;;;;;;12.13;6.13;;;;;;;;;;4936372;29;20047;-87
2021/08/01 06:41:52;;;;;;;10.55;6.20;;;;;;;;;;4950460;29;20047;-87
2021/08/01 06:44:19;;;;;;;10.02;6.07;;;;;;;;;;4937381;29;20086;-87
2021/08/01 06:46:48;;;;;;;9.70;5.72;;;;;;;;;;4935802;29;20476;-86
2021/08/01 06:49:18;;;;;;;12.82;5.15;;;;;;;;;;4931949;29;20058;-86
2021/08/01 06:52:05;;;;;;;13.98;5.88;;;;;;;;;;4940508;28;20059;-86
2021/08/01 06:54:36;;;;;;;13.20;6.03;;;;;;;;;;4942580;28;20054;-85
2021/08/01 06:57:03;;;;;;;10.75;5.85;;;;;;;;;;4947128;29;20156;-84
2021/08/01 06:59:31;;;;;;;7.30;5.45;;;;;;;;;;4934188;29;20488;-84
2021/08/01 07:01:58;;;;;;;11.43;5.35;;;;;;;;;;4949413;29;20916;-84
2021/08/01 07:04:27;;;;;;;8.18;5.32;;;;;;;;;;4948660;28;20082;-85
2021/08/01 07:06:55;;;;;;;11.10;5.38;;;;;;;;;;4932731;28;20143;-85
2021/08/01 07:09:25;;;;;;;9.18;5.15;;;;;;;;;;4951955;28;20805;-85
2021/08/01 07:11:53;;;;;;;10.52;5.22;;;;;;;;;;4950660;28;20051;-85
2021/08/01 07:14:20;;;;;;;6.45;4.90;;;;;;;;;;4942161;28;20099;-85
2021/08/01 07:16:47;;;;;;;9.95;5.22;;;;;;;;;;4954893;28;20150;-85
2021/08/01 07:19:15;;;;;;;10.60;4.68;;;;;;;;;;4952533;28;20048;-85
2021/08/01 07:21:42;;;;;;;5.75;4.15;;;;;;;;;;4953532;28;20416;-86
2021/08/01 07:24:09;;;;;;;8.18;4.07;;;;;;;;;;4953325;28;20075;-86
2021/08/01 07:26:41;;;;;;;12.55;4.07;;;;;;;;;;4951474;28;20531;-85
2021/08/01 07:29:18;;;;;;;6.43;4.50;;;;;;;;;;4956377;28;20053;-86
2021/08/01 07:31:47;;;;;;;10.70;4.70;;;;;;;;;;4949765;28;20051;-85
2021/08/01 07:34:19;;;;;;;7.45;4.28;;;;;;;;;;4935940;29;20484;-84
2021/08/01 07:36:47;;;;;;;6.10;4.45;;;;;;;;;;4933234;28;20136;-84
2021/08/01 07:39:14;;;;;;;5.88;3.78;;;;;;;;;;4955145;28;20058;-84
2021/08/01 07:41:43;;;;;;;8.10;4.18;;;;;;;;;;4934207;29;20603;-84
2021/08/01 07:44:11;;;;;;;4.68;3.67;;;;;;;;;;4952382;28;20143;-84
2021/08/01 07:46:38;;;;;;;10.80;4.63;;;;;;;;;;4934614;29;20102;-84
2021/08/01 07:49:07;;;;;;;5.93;4.13;;;;;;;;;;4950483;28;20499;-83
2021/08/01 07:51:36;;;;;;;6.97;2.70;;;;;;;;;;4949983;28;20102;-85
2021/08/01 07:54:03;;;;;;;4.30;2.28;;;;;;;;;;4944814;28;20087;-85
2021/08/01 07:56:35;;;;;;;8.00;2.70;;;;;;;;;;4948660;28;20781;-84
2021/08/01 07:59:08;;;;;;;;;;;;;;;;;;4952432;28;20074;-84
2021/08/01 08:01:36;;;;;;;5.00;2.47;;;;;;;;;;4948760;28;21672;-84
2021/08/01 08:04:03;;;;;;;6.85;2.72;;;;;;;;;;4934932;28;20051;-84
2021/08/01 08:06:33;;;;;;;7.25;3.22;;;;;;;;;;4952864;28;20047;-84
2021/08/01 08:09:02;;;;;;;5.32;3.10;;;;;;;;;;4952576;29;20051;-84
2021/08/01 08:11:29;;;;;;;9.65;3.38;;;;;;;;;;4935465;29;20059;-84
2021/08/01 08:13:56;;;;;;;8.40;3.17;;;;;;;;;;4941893;29;20105;-84
2021/08/01 08:16:23;;;;;;;12.88;2.90;;;;;;;;;;4936851;29;20062;-85
2021/08/01 08:18:51;;;;;;;10.70;3.35;;;;;;;;;;4935722;29;20098;-84
2021/08/01 08:21:18;;;;;;;12.15;3.50;;;;;;;;;;4937084;29;20078;-85
2021/08/01 08:23:45;;;;;;;8.25;2.65;;;;;;;;;;4957389;28;20554;-84
2021/08/01 08:26:12;;;;;;;8.85;3.40;;;;;;;;;;4944179;29;20055;-84
2021/08/01 08:28:40;;;;;;;4.90;3.00;;;;;;;;;;4954361;28;20129;-84
2021/08/01 08:31:07;;;;;;;10.00;2.90;;;;;;;;;;4951529;28;20086;-85
2021/08/01 08:33:34;;;;;;;10.00;3.33;;;;;;;;;;4942298;28;20058;-84
2021/08/01 08:36:01;;;;;;;9.20;3.13;;;;;;;;;;4956590;28;20054;-84
2021/08/01 08:38:29;;;;;;;11.20;3.38;;;;;;;;;;4947188;28;20133;-84
2021/08/01 08:40:56;;;;;;;4.95;3.13;;;;;;;;;;4953356;28;20500;-84
2021/08/01 08:43:23;;;;;;;7.55;3.22;;;;;;;;;;4939249;29;20154;-84
2021/08/01 08:45:52;;;;;;;5.53;2.63;;;;;;;;;;4953871;28;20083;-85
2021/08/01 08:48:19;;;;;;;8.65;2.63;;;;;;;;;;4936664;29;20126;-84
2021/08/01 08:50:50;;;;;;;7.85;2.97;;;;;;;;;;4936537;29;20087;-84
2021/08/01 08:53:19;;;;;;;8.05;2.92;;;;;;;;;;4952396;28;20065;-84
2021/08/01 08:55:48;;;;;;;12.90;2.92;;;;;;;;;;4936718;29;20082;-84
2021/08/01 08:58:20;;;;;;;7.45;3.08;;;;;;;;;;4946182;28;20066;-84
2021/08/01 09:00:47;;;;;;;10.98;3.75;;;;;;;;;;4953406;28;20090;-84
2021/08/01 09:03:14;;;;;;;5.50;3.00;;;;;;;;;;4935539;29;20051;-84
2021/08/01 09:05:43;;;;;;;8.18;3.42;;;;;;;;;;4935844;29;20047;-84
2021/08/01 09:08:10;;;;;;;6.25;3.25;;;;;;;;;;4952455;29;20055;-84
2021/08/01 09:10:38;;;;;;;6.97;3.67;;;;;;;;;;4935742;29;20881;-84
2021/08/01 09:13:05;;;;;;;6.53;2.97;;;;;;;;;;4941250;29;20062;-84
2021/08/01 09:15:32;;;;;;;9.70;3.45;;;;;;;;;;4949817;28;20051;-84
2021/08/01 09:18:00;;;;;;;6.30;3.50;;;;;;;;;;4931548;29;20055;-85
2021/08/01 09:20:32;;;;;;;7.88;3.47;;;;;;;;;;4932376;29;20079;-84
2021/08/01 09:22:59;;;;;;;8.93;3.60;;;;;;;;;;4931995;28;20142;-84
2021/08/01 09:25:30;;;;;;;7.75;3.08;;;;;;;;;;4940688;29;20083;-85
2021/08/01 09:28:11;;;;;;;8.63;3.38;;;;;;;;;;4947315;29;20495;-84
2021/08/01 09:30:58;;;;;;;6.45;2.95;;;;;;;;;;4944579;28;20073;-84
2021/08/01 09:33:32;;;;;;;8.05;3.25;;;;;;;;;;4951846;28;20137;-85
2021/08/01 09:36:08;;;;;;;5.80;3.40;;;;;;;;;;4938814;28;20550;-85
2021/08/01 09:38:53;;;;;;;9.55;3.45;;;;;;;;;;4955970;28;20062;-85
2021/08/01 09:41:21;;;;;;;7.22;2.75;;;;;;;;;;4945436;29;20051;-84
2021/08/01 09:43:50;;;;;;;4.68;2.80;;;;;;;;;;4951735;29;20039;-84
2021/08/01 09:46:17;;;;;;;9.52;3.53;;;;;;;;;;4952300;28;20086;-84
2021/08/01 09:48:46;;;;;;;11.25;3.40;;;;;;;;;;4951484;28;20078;-84
2021/08/01 09:51:15;;;;;;;7.53;3.05;;;;;;;;;;4952773;28;20066;-84
2021/08/01 09:53:42;;;;;;;10.05;3.58;;;;;;;;;;4951918;29;20055;-84
2021/08/01 09:56:09;;;;;;;7.15;3.47;;;;;;;;;;4948368;28;20055;-85
2021/08/01 09:58:37;;;;;;;7.57;3.75;;;;;;;;;;4954571;28;20173;-85
2021/08/01 10:01:04;;;;;;;15.95;3.83;;;;;;;;;;4933001;29;20056;-84
2021/08/01 10:03:35;;;;;;;9.88;3.92;;;;;;;;;;4949385;28;20070;-84
2021/08/01 10:06:16;;;;;;;7.25;3.78;;;;;;;;;;4943883;28;20484;-84
2021/08/01 10:08:45;;;;;;;9.85;3.20;;;;;;;;;;4951556;29;20811;-84
2021/08/01 10:11:16;;;;;;;13.02;3.85;;;;;;;;;;4951990;28;20074;-85
2021/08/01 10:13:49;;;;;;;11.15;3.85;;;;;;;;;;4934192;29;20159;-84
2021/08/01 10:16:16;;;;;;;9.60;3.67;;;;;;;;;;4944656;29;20047;-84
2021/08/01 10:18:44;;;;;;;10.93;4.00;;;;;;;;;;4951941;28;20086;-84
2021/08/01 10:21:13;;;;;;;7.60;3.80;;;;;;;;;;4952203;29;20074;-84
2021/08/01 10:23:42;;;;;;;12.85;4.03;;;;;;;;;;4946711;28;20047;-85
2021/08/01 10:26:09;;;;;;;9.95;3.67;;;;;;;;;;4935737;29;20071;-85
2021/08/01 10:28:51;;;;;;;12.45;5.05;;;;;;;;;;4951338;29;20086;-84
2021/08/01 10:31:22;;;;;;;8.90;3.78;;;;;;;;;;4939081;29;20082;-84
2021/08/01 10:33:56;;;;;;;8.00;3.60;;;;;;;;;;4938895;29;20126;-84
2021/08/01 10:36:28;;;;;;;6.13;3.58;;;;;;;;;;4949550;28;20847;-84
2021/08/01 10:39:05;;;;;;;7.25;4.03;;;;;;;;;;4959381;28;20050;-84
2021/08/01 10:41:34;;;;;;;8.43;4.10;;;;;;;;;;4944512;29;20130;-84
2021/08/01 10:44:05;;;;;;;13.27;3.78;;;;;;;;;;4955444;29;20055;-85
2021/08/01 10:46:33;;;;;;;7.72;3.80;;;;;;;;;;4953371;28;20049;-84
2021/08/01 10:49:01;;;;;;;6.68;4.00;;;;;;;;;;4952980;28;20118;-85
2021/08/01 10:51:29;;;;;;;8.55;4.10;;;;;;;;;;4950248;28;20131;-85
2021/08/01 10:54:17;;;;;;;12.27;5.28;;;;;;;;;;4952382;28;20129;-85
2021/08/01 10:56:44;;;;;;;10.50;3.97;;;;;;;;;;4950638;28;20074;-84
2021/08/01 10:59:50;;;;;;;15.20;4.47;;;;;;;;;;4938559;29;20078;-84
2021/08/01 11:02:19;;;;;;;10.98;4.90;;;;;;;;;;4954131;28;20143;-85
2021/08/01 11:04:47;;;;;;;12.02;5.40;;;;;;;;;;4938700;29;20625;-85
2021/08/01 11:07:27;;;;;;;14.85;5.63;;;;;;;;;;4930507;29;20946;-85
2021/08/01 11:10:12;;;;;;;15.07;5.35;;;;;;;;;;4938222;28;20448;-85
2021/08/01 11:12:41;;;;;;;11.60;5.60;;;;;;;;;;4954942;28;20048;-85
2021/08/01 11:15:10;;;;;;;13.40;6.55;;;;;;;;;;4950671;28;20551;-86
2021/08/01 11:17:46;;;;;;;13.50;6.22;;;;;;;;;;4930700;29;20208;-85
2021/08/01 11:20:13;;;;;;;11.68;6.55;;;;;;;;;;4939453;29;20622;-85
2021/08/01 11:22:42;;;;;;;9.75;5.90;;;;;;;;;;4953251;28;20130;-85
2021/08/01 11:25:24;;;;;;;12.07;5.88;;;;;;;;;;4945434;29;20416;-84
2021/08/01 11:28:10;;;;;;;13.50;6.35;;;;;;;;;;4955175;28;20050;-85
2021/08/01 11:30:56;;;;;;;16.95;7.38;;;;;;;;;;4952951;28;20110;-85
2021/08/01 11:33:35;;;;;;;15.25;7.25;;;;;;;;;;4953048;29;20089;-84
2021/08/01 11:36:16;;;;;;;11.20;6.85;;;;;;;;;;4933363;29;20055;-84
2021/08/01 11:38:52;;;;;;;9.43;6.40;;;;;;;;;;4949910;28;20811;-84
2021/08/01 11:41:41;;;;;;;11.88;6.03;;;;;;;;;;4936271;29;20134;-84
2021/08/01 11:44:16;;;;;;;9.15;5.38;;;;;;;;;;4946032;28;20133;-84
2021/08/01 11:46:43;;;;;;;;;;;;;;;;;;4954865;29;20149;-84
2021/08/01 11:49:10;;;;;;;9.10;5.70;;;;;;;;;;4954606;29;20009;-85
2021/08/01 11:51:43;;;;;;;9.18;5.47;;;;;;;;;;4942821;29;20047;-85
2021/08/01 11:54:14;;;;;;;9.65;5.85;;;;;;;;;;4951780;28;20085;-84
2021/08/01 11:56:43;;;;;;;16.10;6.20;;;;;;;;;;4940739;28;20094;-84
2021/08/01 11:59:13;;;;;;;12.82;5.78;;;;;;;;;;4953936;28;20074;-84
2021/08/01 12:01:46;;;;;;;10.57;5.90;;;;;;;;;;4938601;29;20086;-84
2021/08/01 12:04:13;;;;;;;29.73;9.70;;;;;;;;;;4938038;29;20055;-87
2021/08/01 12:06:41;;;;;;;17.95;6.78;;;;;;;;;;4948599;28;20051;-86
2021/08/01 12:09:21;;;;;;;17.42;7.00;;;;;;;;;;4946422;28;20059;-86
2021/08/01 12:11:49;;;;;;;19.00;8.00;;;;;;;;;;4939654;29;20143;-85
2021/08/01 12:14:36;;;;;;;17.23;8.25;;;;;;;;;;4953282;29;20055;-85
2021/08/01 12:17:10;;;;;;;12.82;7.00;;;;;;;;;;4937672;29;20087;-85
2021/08/01 12:19:38;;;;;;;15.00;7.57;;;;;;;;;;4953898;28;20051;-85
2021/08/01 12:22:14;;;;;;;13.98;6.18;;;;;;;;;;4945524;29;20135;-85
2021/08/01 12:24:45;;;;;;;15.15;6.90;;;;;;;;;;4965015;28;20070;-85
2021/08/01 12:27:27;;;;;;;10.40;6.82;;;;;;;;;;4934376;29;20075;-85
2021/08/01 12:29:58;;;;;;;13.40;7.10;;;;;;;;;;4946506;29;20054;-85
2021/08/01 12:32:29;;;;;;;11.77;7.13;;;;;;;;;;4947880;29;20687;-84
2021/08/01 12:35:04;;;;;;;11.15;6.93;;;;;;;;;;4936348;28;20768;-85
2021/08/01 12:37:39;;;;;;;11.32;6.95;;;;;;;;;;4936967;29;20051;-85
2021/08/01 12:40:06;;;;;;;;;;;;;;;;;;4936287;28;20093;-84
2021/08/01 12:42:33;;;;;;;15.18;6.95;;;;;;;;;;4947313;29;20016;-85
2021/08/01 12:45:04;;;;;;;13.48;7.10;;;;;;;;;;4939772;29;20106;-84
2021/08/01 12:47:31;;;;;;;16.50;7.47;;;;;;;;;;4936061;29;20126;-86
2021/08/01 12:50:04;;;;;;;27.65;7.85;;;;;;;;;;4968826;28;20141;-87
2021/08/01 12:52:31;;;;;;;19.13;7.63;;;;;;;;;;4936725;29;20082;-88
2021/08/01 12:54:59;;;;;;;19.23;6.43;;;;;;;;;;4950483;28;20081;-88
2021/08/01 12:57:26;;;;;;;9.82;5.70;;;;;;;;;;4940783;28;20147;-87
2021/08/01 13:00:06;;;;;;;14.18;5.03;;;;;;;;;;4958416;28;20059;-88
2021/08/01 13:02:42;;;;;;;7.07;3.42;;;;;;;;;;4940547;29;20424;-88
2021/08/01 13:05:27;;;;;;;6.80;3.10;;;;;;;;;;4952624;28;20110;-88
2021/08/01 13:08:05;;;;;;;8.70;3.42;;;;;;;;;;4938881;28;20047;-88
2021/08/01 13:10:46;;;;;;;6.88;3.00;;;;;;;;;;4943391;28;20056;-87
2021/08/01 13:13:14;;;;;;;6.72;3.00;;;;;;;;;;4945336;29;20078;-87
2021/08/01 13:16:01;;;;;;;8.32;3.00;;;;;;;;;;4952619;28;20079;-86
2021/08/01 13:18:34;;;;;;;7.43;3.33;;;;;;;;;;4947041;28;20134;-87
2021/08/01 13:21:14;;;;;;;4.22;3.13;;;;;;;;;;4936052;29;20055;-86
2021/08/01 13:23:42;;;;;;;5.10;2.72;;;;;;;;;;4936236;29;20055;-86
2021/08/01 13:26:30;;;;;;;7.47;3.33;;;;;;;;;;4935271;28;20094;-86
2021/08/01 13:28:59;;;;;;;9.65;3.30;;;;;;;;;;4941103;29;20127;-86
2021/08/01 13:31:40;;;;;;;6.85;3.53;;;;;;;;;;4941462;29;20039;-87
2021/08/01 13:34:11;;;;;;;7.85;3.70;;;;;;;;;;4952462;28;20125;-86
2021/08/01 13:36:43;;;;;;;7.90;3.80;;;;;;;;;;4935208;28;20079;-87
2021/08/01 13:39:13;;;;;;;7.18;3.97;;;;;;;;;;4949071;29;20138;-86
2021/08/01 13:41:42;;;;;;;7.22;4.03;;;;;;;;;;4952268;28;20122;-86
2021/08/01 13:44:15;;;;;;;10.73;4.13;;;;;;;;;;4931565;28;20047;-86
2021/08/01 13:47:03;;;;;;;12.27;4.75;;;;;;;;;;4933521;28;20078;-87
2021/08/01 13:49:33;;;;;;;5.75;3.50;;;;;;;;;;4939364;29;20055;-89
2021/08/01 13:52:01;;;;;;;7.38;3.17;;;;;;;;;;4951012;29;20069;-91
2021/08/01 13:54:28;;;;;;;6.95;3.42;;;;;;;;;;4938934;29;20147;-92
2021/08/01 14:00:44;;;;;;;16.20;4.05;;;;;;;;;;4957806;29;20121;-91
2021/08/01 14:03:13;;;;;;;9.88;3.67;;;;;;;;;;4957281;28;20065;-91
2021/08/01 14:05:41;;;;;;;5.28;2.75;;;;;;;;;;4932500;28;20054;-90
2021/08/01 14:08:16;;;;;;;5.93;2.75;;;;;;;;;;4933303;29;20459;-90
2021/08/01 14:10:43;;;;;;;7.80;2.87;;;;;;;;;;4934926;29;20051;-89
2021/08/01 14:13:18;;;;;;;5.60;2.55;;;;;;;;;;4946402;28;20043;-89
2021/08/01 14:15:53;;;;;;;4.05;2.67;;;;;;;;;;4939170;28;20086;-92
2021/08/01 14:18:34;;;;;;;7.15;2.78;;;;;;;;;;4944292;28;20051;-89
2021/08/01 14:21:03;;;;;;;4.95;2.42;;;;;;;;;;4947790;28;20063;-89
2021/08/01 14:23:34;;;;;;;3.35;2.20;;;;;;;;;;4939380;28;20515;-89
2021/08/01 14:26:11;;;;;;;4.88;2.30;;;;;;;;;;4925030;28;20081;-88
2021/08/01 14:28:39;;;;;;;7.38;2.92;;;;;;;;;;4931063;28;20058;-87
2021/08/01 14:31:08;;;;;;;7.10;2.47;;;;;;;;;;4934299;28;20054;-89
2021/08/01 14:33:38;;;;;;;4.78;2.05;;;;;;;;;;4930342;29;20043;-89
2021/08/01 14:36:10;;;;;;;3.80;1.60;;;;;;;;;;4924787;29;20047;-89
2021/08/01 14:38:40;;;;;;;5.50;2.28;;;;;;;;;;4950201;28;20043;-88
2021/08/01 14:41:13;;;;;;;4.88;2.25;;;;;;;;;;4948111;28;20047;-88
2021/08/01 14:43:58;;;;;;;5.60;2.22;;;;;;;;;;4950635;28;20139;-88
2021/08/01 14:46:38;;;;;;;6.90;2.13;;;;;;;;;;4938371;28;20043;-87
2021/08/01 14:49:23;;;;;;;3.88;2.50;;;;;;;;;;4948727;28;20393;-89
2021/08/01 14:54:31;;;;;;;3.47;2.00;;;;;;;;;;4926700;28;20055;-88
2021/08/01 14:57:12;;;;;;;3.83;2.58;;;;;;;;;;4939500;28;20058;-88
2021/08/01 14:59:45;;;;;;;5.68;2.72;;;;;;;;;;4948519;28;20083;-89
2021/08/01 15:02:31;;;;;;;5.93;2.70;;;;;;;;;;4950903;28;20109;-88